KFEW/FEW METAR and TAF weather

Enter ICAO airport designator
Station Type Date Time Source
KFEW METAR 2022/01/19 20:03 UTC NOAA

KFEW 192003Z 00000KT 3SM -SN OVC022 M10/M11 A3019 RMK AO2A SLP291


Station Type Date Time Source
KFEW Decoded METAR 2022/01/19 20:03 UTC NOAA

Station name not available
Jan 19, 2022 - 03:03 PM EST / 2022.01.19 2003 UTC
Wind: Calm:0
Visibility: 3 mile(s):0
Sky conditions: overcast
Weather: light snow
Temperature: 14 F (-10 C)
Dew Point: 12 F (-11 C)
Relative Humidity: 92%
Pressure (altimeter): 30.19 in. Hg (1022 hPa)
ob: KFEW 192003Z 00000KT 3SM -SN OVC022 M10/M11 A3019 RMK AO2A SLP291
cycle: 20

Station Type Date Time Source
KFEW TAF UTC NOAA

Error!

Example: see airport list